createdAt,value
2018-04-30T00:02:25.181Z,99.90
2018-04-30T00:04:54.021Z,99.90
2018-04-30T00:07:22.105Z,99.90
2018-04-30T00:09:50.306Z,99.90
2018-04-30T00:12:18.410Z,99.90
2018-04-30T00:14:46.483Z,99.90
2018-04-30T00:17:14.538Z,99.90
2018-04-30T00:19:43.381Z,99.90
2018-04-30T00:22:12.207Z,99.90
2018-04-30T00:24:41.035Z,99.90
2018-04-30T00:27:09.117Z,99.90
2018-04-30T00:29:37.203Z,99.90
2018-04-30T00:32:05.366Z,99.90
2018-04-30T00:34:33.408Z,99.90
2018-04-30T00:37:01.490Z,99.90
2018-04-30T00:39:29.561Z,99.90
2018-04-30T00:41:57.632Z,99.90
2018-04-30T00:44:25.718Z,99.90
2018-04-30T00:46:53.753Z,99.90
2018-04-30T00:49:21.801Z,99.90
2018-04-30T00:51:49.872Z,99.90
2018-04-30T00:54:29.825Z,99.90
2018-04-30T00:56:58.626Z,99.90
2018-04-30T00:59:26.692Z,99.90
2018-04-30T01:01:54.775Z,99.90
2018-04-30T01:04:22.856Z,99.90
2018-04-30T01:06:50.954Z,99.90
2018-04-30T01:09:19.026Z,99.90
2018-04-30T01:11:47.088Z,99.90
2018-04-30T01:14:15.142Z,99.90
2018-04-30T01:16:43.203Z,99.90
2018-04-30T01:19:11.296Z,99.90
2018-04-30T01:21:39.341Z,99.90
2018-04-30T01:24:07.512Z,99.90
2018-04-30T01:26:35.566Z,99.90
2018-04-30T01:29:03.608Z,99.90
2018-04-30T01:31:31.664Z,99.90
2018-04-30T01:33:59.732Z,99.90
2018-04-30T01:36:27.788Z,99.90
2018-04-30T01:38:55.873Z,99.90
2018-04-30T01:41:23.926Z,99.90
2018-04-30T01:43:51.961Z,99.90
2018-04-30T01:46:20.071Z,99.90
2018-04-30T01:48:48.200Z,99.90
2018-04-30T01:51:16.273Z,99.90
2018-04-30T01:53:44.360Z,99.90
2018-04-30T01:56:12.448Z,99.90
2018-04-30T01:58:40.520Z,99.90
2018-04-30T02:01:08.592Z,99.90
2018-04-30T02:03:36.692Z,99.90
2018-04-30T02:06:05.504Z,99.90
2018-04-30T02:08:33.545Z,99.90
2018-04-30T02:11:02.392Z,99.90
2018-04-30T02:13:30.446Z,99.90
2018-04-30T02:15:58.490Z,99.90
2018-04-30T02:18:26.546Z,99.90
2018-04-30T02:20:54.598Z,99.90
2018-04-30T02:23:22.647Z,99.90
2018-04-30T02:25:50.750Z,99.90
2018-04-30T02:28:18.832Z,99.90
2018-04-30T02:30:46.922Z,99.90
2018-04-30T02:33:15.054Z,99.90
2018-04-30T02:35:43.107Z,99.90
2018-04-30T02:38:11.163Z,99.90
2018-04-30T02:40:39.214Z,99.90
2018-04-30T02:43:07.249Z,99.90
2018-04-30T02:45:35.420Z,99.90
2018-04-30T02:48:03.561Z,99.90
2018-04-30T02:50:31.617Z,99.90
2018-04-30T02:52:59.676Z,99.90
2018-04-30T02:55:27.734Z,99.90
2018-04-30T02:57:56.533Z,99.90
2018-04-30T03:00:24.640Z,99.90
2018-04-30T03:02:52.727Z,99.90
2018-04-30T03:05:20.797Z,99.90
2018-04-30T03:07:48.893Z,99.90
2018-04-30T03:10:16.978Z,99.90
2018-04-30T03:12:45.074Z,99.90
2018-04-30T03:15:13.164Z,99.90
2018-04-30T03:17:41.198Z,99.90
2018-04-30T03:20:09.247Z,99.90
2018-04-30T03:22:37.297Z,99.90
2018-04-30T03:25:05.402Z,99.90
2018-04-30T03:27:33.473Z,99.90
2018-04-30T03:30:01.537Z,99.90
2018-04-30T03:32:29.676Z,99.90
2018-04-30T03:34:57.721Z,99.90
2018-04-30T03:37:25.789Z,99.90
2018-04-30T03:39:53.824Z,99.90
2018-04-30T03:42:21.900Z,99.90
2018-04-30T03:44:49.956Z,99.90
2018-04-30T03:47:17.989Z,99.90
2018-04-30T03:49:46.121Z,99.90
2018-04-30T03:52:14.135Z,99.90
2018-04-30T03:54:42.247Z,99.90
2018-04-30T03:57:10.261Z,99.90
2018-04-30T03:59:38.319Z,99.90
2018-04-30T04:02:18.274Z,99.90
2018-04-30T04:04:58.800Z,99.90
2018-04-30T04:07:26.892Z,99.90
2018-04-30T04:09:54.932Z,99.90
2018-04-30T04:12:22.986Z,99.90
2018-04-30T04:14:51.049Z,99.90
2018-04-30T04:17:19.233Z,99.90
2018-04-30T04:19:47.271Z,99.90
2018-04-30T04:22:15.358Z,99.90
2018-04-30T04:24:43.407Z,99.90
2018-04-30T04:27:11.434Z,99.90
2018-04-30T04:29:39.509Z,99.90
2018-04-30T04:32:07.571Z,99.90
2018-04-30T04:34:36.050Z,99.90
2018-04-30T04:37:04.084Z,99.90
2018-04-30T04:39:32.128Z,99.90
2018-04-30T04:42:00.214Z,99.90
2018-04-30T04:44:28.251Z,99.90
2018-04-30T04:46:56.315Z,99.90
2018-04-30T04:49:24.429Z,99.90
2018-04-30T04:51:52.510Z,99.90
2018-04-30T04:54:20.561Z,99.90
2018-04-30T04:56:48.633Z,99.90
2018-04-30T04:59:16.687Z,99.90
2018-04-30T05:01:44.732Z,99.90
2018-04-30T05:04:12.826Z,99.90
2018-04-30T05:06:40.978Z,99.90
2018-04-30T05:09:09.028Z,99.90
2018-04-30T05:11:37.097Z,99.90
2018-04-30T05:14:05.214Z,99.90
2018-04-30T05:16:33.298Z,99.90
2018-04-30T05:19:02.357Z,99.90
2018-04-30T05:21:30.403Z,99.90
2018-04-30T05:23:59.273Z,99.90
2018-04-30T05:26:27.341Z,99.90
2018-04-30T05:28:55.412Z,99.90
2018-04-30T05:31:23.497Z,99.90
2018-04-30T05:33:51.575Z,99.90
2018-04-30T05:36:20.372Z,98.80
2018-04-30T05:38:48.466Z,98.70
2018-04-30T05:41:16.511Z,99.60
2018-04-30T05:43:44.577Z,96.60
2018-04-30T05:46:13.451Z,97.90
2018-04-30T05:48:41.631Z,97.90
2018-04-30T05:51:09.697Z,96.20
2018-04-30T05:53:37.755Z,96.40
2018-04-30T05:56:05.797Z,96.10
2018-04-30T05:58:33.917Z,95.40
2018-04-30T06:01:02.016Z,92.60
2018-04-30T06:03:30.073Z,94.60
2018-04-30T06:05:58.913Z,93.80
2018-04-30T06:08:26.980Z,93.70
2018-04-30T06:10:55.057Z,93.30
2018-04-30T06:13:23.123Z,92.00
2018-04-30T06:15:51.200Z,91.50
2018-04-30T06:18:19.306Z,91.40
2018-04-30T06:20:47.385Z,91.30
2018-04-30T06:23:16.225Z,90.70
2018-04-30T06:25:44.310Z,90.70
2018-04-30T06:28:12.349Z,87.90
2018-04-30T06:30:40.417Z,90.10
2018-04-30T06:33:08.478Z,89.20
2018-04-30T06:35:37.298Z,84.50
2018-04-30T06:38:05.375Z,85.30
2018-04-30T06:40:33.421Z,86.80
2018-04-30T06:43:01.479Z,83.80
2018-04-30T06:45:29.550Z,86.00
2018-04-30T06:47:57.584Z,76.90
2018-04-30T06:50:25.641Z,76.90
2018-04-30T06:52:53.743Z,79.00
2018-04-30T06:55:21.817Z,83.00
2018-04-30T06:57:49.872Z,82.00
2018-04-30T07:00:17.958Z,83.60
2018-04-30T07:02:46.049Z,79.50
2018-04-30T07:05:14.126Z,79.20
2018-04-30T07:07:42.198Z,78.30
2018-04-30T07:10:10.273Z,83.10
2018-04-30T07:12:38.337Z,79.70
2018-04-30T07:15:07.177Z,75.20
2018-04-30T07:17:35.290Z,74.80
2018-04-30T07:20:03.915Z,73.60
2018-04-30T07:22:31.980Z,74.80
2018-04-30T07:25:00.080Z,67.60
2018-04-30T07:27:28.188Z,66.50
2018-04-30T07:29:56.225Z,70.50
2018-04-30T07:32:24.481Z,67.00
2018-04-30T07:34:52.543Z,70.00
2018-04-30T07:37:20.657Z,66.00
2018-04-30T07:39:48.725Z,68.80
2018-04-30T07:42:16.778Z,64.00
2018-04-30T07:44:44.861Z,65.50
2018-04-30T07:47:12.949Z,61.20
2018-04-30T07:49:41.017Z,59.60
2018-04-30T07:52:09.094Z,59.20
2018-04-30T07:54:37.205Z,61.50
2018-04-30T07:57:05.236Z,64.10
2018-04-30T07:59:34.798Z,64.20
2018-04-30T08:02:02.891Z,63.10
2018-04-30T08:04:30.942Z,61.10
2018-04-30T08:06:58.977Z,63.10
2018-04-30T08:09:27.066Z,62.70
2018-04-30T08:11:55.108Z,59.70
2018-04-30T08:14:23.148Z,60.50
2018-04-30T08:16:51.211Z,61.60
2018-04-30T08:19:19.280Z,59.50
2018-04-30T08:21:47.359Z,61.50
2018-04-30T08:24:15.429Z,58.80
2018-04-30T08:26:43.489Z,62.40
2018-04-30T08:29:11.586Z,59.40
2018-04-30T08:31:39.914Z,60.30
2018-04-30T08:34:07.975Z,63.10
2018-04-30T08:36:36.165Z,65.50
2018-04-30T08:39:04.356Z,65.70
2018-04-30T08:41:32.404Z,61.70
2018-04-30T08:44:00.506Z,60.30
2018-04-30T08:46:28.573Z,60.40
2018-04-30T08:48:56.640Z,61.60
2018-04-30T08:51:24.745Z,58.70
2018-04-30T08:53:52.823Z,62.60
2018-04-30T08:56:20.893Z,60.10
2018-04-30T08:58:48.996Z,57.50
2018-04-30T09:01:17.854Z,61.70
2018-04-30T09:03:45.925Z,60.60
2018-04-30T09:06:14.012Z,59.70
2018-04-30T09:08:42.061Z,58.80
2018-04-30T09:11:10.107Z,58.40
2018-04-30T09:13:38.202Z,60.20
2018-04-30T09:16:06.267Z,55.80
2018-04-30T09:18:34.346Z,58.50
2018-04-30T09:21:02.450Z,57.90
2018-04-30T09:23:30.504Z,63.60
2018-04-30T09:25:58.565Z,57.50
2018-04-30T09:28:26.638Z,56.90
2018-04-30T09:30:54.690Z,57.40
2018-04-30T09:33:22.731Z,56.20
2018-04-30T09:35:50.782Z,53.50
2018-04-30T09:38:18.973Z,56.00
2018-04-30T09:40:47.018Z,52.40
2018-04-30T09:43:15.044Z,50.60
2018-04-30T09:45:43.114Z,49.30
2018-04-30T09:48:11.170Z,52.50
2018-04-30T09:50:39.970Z,48.10
2018-04-30T09:53:08.041Z,47.80
2018-04-30T09:55:36.086Z,47.80
2018-04-30T09:58:04.122Z,48.40
2018-04-30T10:00:32.175Z,48.10
2018-04-30T10:03:00.213Z,45.40
2018-04-30T10:05:29.110Z,46.00
2018-04-30T10:07:57.909Z,46.30
2018-04-30T10:10:26.723Z,46.80
2018-04-30T10:12:54.809Z,46.80
2018-04-30T10:15:22.898Z,45.00
2018-04-30T10:17:51.061Z,43.70
2018-04-30T10:20:19.850Z,47.20
2018-04-30T10:22:47.894Z,47.20
2018-04-30T10:25:15.938Z,45.00
2018-04-30T10:27:44.762Z,46.20
2018-04-30T10:30:12.792Z,46.10
2018-04-30T10:32:40.833Z,42.80
2018-04-30T10:35:08.943Z,42.60
2018-04-30T10:37:36.996Z,39.00
2018-04-30T10:40:05.061Z,39.90
2018-04-30T10:42:33.154Z,41.80
2018-04-30T10:45:01.246Z,44.30
2018-04-30T10:47:29.298Z,41.00
2018-04-30T10:49:57.360Z,40.70
2018-04-30T10:52:25.395Z,39.90
2018-04-30T10:54:53.428Z,42.80
2018-04-30T10:57:21.469Z,40.30
2018-04-30T10:59:49.503Z,40.60
2018-04-30T11:02:17.589Z,40.70
2018-04-30T11:04:45.658Z,44.50
2018-04-30T11:07:13.719Z,41.20
2018-04-30T11:09:41.766Z,42.50
2018-04-30T11:12:09.805Z,39.80
2018-04-30T11:14:37.854Z,42.10
2018-04-30T11:17:05.957Z,39.70
2018-04-30T11:19:34.768Z,39.80
2018-04-30T11:22:02.857Z,39.80
2018-04-30T11:24:30.965Z,40.10
2018-04-30T11:26:59.016Z,41.80
2018-04-30T11:29:27.057Z,41.10
2018-04-30T11:31:55.096Z,40.60
2018-04-30T11:34:23.896Z,41.40
2018-04-30T11:36:51.964Z,41.30
2018-04-30T11:39:19.996Z,42.10
2018-04-30T11:41:48.033Z,42.90
2018-04-30T11:44:16.151Z,42.90
2018-04-30T11:46:44.189Z,42.90
2018-04-30T11:49:12.296Z,44.20
2018-04-30T11:51:40.377Z,41.00
2018-04-30T11:54:08.423Z,41.90
2018-04-30T11:56:36.456Z,43.70
2018-04-30T11:59:04.508Z,40.80
2018-04-30T12:01:33.410Z,41.50
2018-04-30T12:04:02.281Z,41.70
2018-04-30T12:06:30.343Z,41.50
2018-04-30T12:08:58.425Z,43.20
2018-04-30T12:11:27.243Z,42.20
2018-04-30T12:13:55.562Z,41.90
2018-04-30T12:16:23.613Z,42.10
2018-04-30T12:18:51.730Z,43.40
2018-04-30T12:21:20.554Z,42.90
2018-04-30T12:23:48.649Z,42.30
2018-04-30T12:26:16.774Z,42.30
2018-04-30T12:28:47.365Z,41.50
2018-04-30T12:31:15.427Z,43.40
2018-04-30T12:33:43.506Z,42.00
2018-04-30T12:36:11.651Z,43.20
2018-04-30T12:38:39.753Z,43.30
2018-04-30T12:41:07.788Z,41.90
2018-04-30T12:43:35.913Z,41.90
2018-04-30T12:46:03.957Z,42.30
2018-04-30T12:48:32.012Z,42.70
2018-04-30T12:51:00.052Z,43.40
2018-04-30T12:53:28.893Z,43.00
2018-04-30T12:55:56.982Z,42.90
2018-04-30T12:58:25.017Z,43.30
2018-04-30T13:00:53.086Z,42.60
2018-04-30T13:03:21.128Z,43.30
2018-04-30T13:05:49.202Z,43.30
2018-04-30T13:08:17.246Z,41.70
2018-04-30T13:10:45.287Z,43.10
2018-04-30T13:13:13.355Z,40.80
2018-04-30T13:15:41.408Z,42.00
2018-04-30T13:18:10.201Z,41.90
2018-04-30T13:20:38.277Z,42.60
2018-04-30T13:23:06.313Z,41.70
2018-04-30T13:25:34.356Z,40.10
2018-04-30T13:28:02.393Z,40.80
2018-04-30T13:30:30.424Z,41.10
2018-04-30T13:32:58.489Z,42.10
2018-04-30T13:35:26.527Z,40.50
2018-04-30T13:37:54.569Z,41.00
2018-04-30T13:40:22.645Z,40.60
2018-04-30T13:42:50.689Z,38.40
2018-04-30T13:45:18.730Z,34.40
2018-04-30T13:47:46.796Z,33.40
2018-04-30T13:50:14.832Z,29.70
2018-04-30T13:52:42.884Z,28.00
2018-04-30T13:55:10.982Z,27.90
2018-04-30T13:57:39.044Z,28.80
2018-04-30T14:00:07.135Z,27.60
2018-04-30T14:02:35.339Z,28.40
2018-04-30T15:02:35.890Z,22.40
